Time;durP1;ratioP1;P1;durP2;ratioP2;P2;SDS_P1;SDS_P2;PMS_P1;PMS_P2;Temp;Humidity;BMP_temperature;BMP_pressure;BME280_temperature;BME280_humidity;BME280_pressure;Samples;Min_cycle;Max_cycle;Signal;HPM_P1;HPM_P2
2021/07/23 00:02:18;;;;;;;0.10;0.10;;;;;;;;;;4825734;29;20048;-86
2021/07/23 00:04:45;;;;;;;0.10;0.10;;;;;;;;;;4810456;29;20052;-87
2021/07/23 00:07:11;;;;;;;0.10;0.10;;;;;;;;;;4810504;29;20045;-87
2021/07/23 00:09:37;;;;;;;0.10;0.10;;;;;;;;;;4841574;29;20046;-87
2021/07/23 00:12:03;;;;;;;0.10;0.10;;;;;;;;;;4825785;29;20046;-87
2021/07/23 00:14:29;;;;;;;0.10;0.10;;;;;;;;;;4841710;29;20425;-86
2021/07/23 00:16:55;;;;;;;0.15;0.15;;;;;;;;;;4825498;29;20116;-87
2021/07/23 00:19:21;;;;;;;0.10;0.10;;;;;;;;;;4841688;29;20132;-87
2021/07/23 00:21:47;;;;;;;0.10;0.10;;;;;;;;;;4825580;29;20046;-87
2021/07/23 00:24:13;;;;;;;0.10;0.10;;;;;;;;;;4810363;29;20049;-87
2021/07/23 00:26:39;;;;;;;0.20;0.20;;;;;;;;;;4825454;29;20037;-87
2021/07/23 00:29:05;;;;;;;0.20;0.20;;;;;;;;;;4825637;29;20065;-87
2021/07/23 00:31:32;;;;;;;0.10;0.10;;;;;;;;;;4810185;29;20090;-87
2021/07/23 00:33:58;;;;;;;0.10;0.10;;;;;;;;;;4841479;29;20057;-86
2021/07/23 00:36:24;;;;;;;0.10;0.10;;;;;;;;;;4825499;29;20038;-92
2021/07/23 00:38:50;;;;;;;0.20;0.20;;;;;;;;;;4810994;29;20244;-87
2021/07/23 00:41:16;;;;;;;0.10;0.10;;;;;;;;;;4810036;29;20134;-86
2021/07/23 00:43:48;;;;;;;0.10;0.10;;;;;;;;;;4796842;29;20384;-87
2021/07/23 00:46:14;;;;;;;0.20;0.20;;;;;;;;;;4809948;29;20053;-87
2021/07/23 00:48:41;;;;;;;0.10;0.10;;;;;;;;;;4810106;29;20085;-87
2021/07/23 00:51:07;;;;;;;0.10;0.10;;;;;;;;;;4809886;29;20514;-86
2021/07/23 00:53:33;;;;;;;0.10;0.10;;;;;;;;;;4825178;29;20046;-86
2021/07/23 00:56:00;;;;;;;0.10;0.10;;;;;;;;;;4825250;29;20049;-86
2021/07/23 00:58:27;;;;;;;0.10;0.10;;;;;;;;;;4809846;29;20121;-86
2021/07/23 01:00:53;;;;;;;0.10;0.10;;;;;;;;;;4825466;29;20479;-86
2021/07/23 01:03:19;;;;;;;0.10;0.10;;;;;;;;;;4813516;29;20052;-86
2021/07/23 01:05:47;;;;;;;0.10;0.10;;;;;;;;;;4828478;29;20046;-86
2021/07/23 01:08:13;;;;;;;0.10;0.10;;;;;;;;;;4813582;29;20407;-86
2021/07/23 01:10:39;;;;;;;0.10;0.10;;;;;;;;;;4828537;29;20054;-86
2021/07/23 01:13:05;;;;;;;0.20;0.20;;;;;;;;;;4828581;29;20042;-86
2021/07/23 01:15:32;;;;;;;0.20;0.20;;;;;;;;;;4828286;29;20042;-86
2021/07/23 01:17:58;;;;;;;0.10;0.10;;;;;;;;;;4828339;29;20042;-86
2021/07/23 01:20:25;;;;;;;0.10;0.10;;;;;;;;;;4813237;29;20048;-86
2021/07/23 01:22:51;;;;;;;0.10;0.10;;;;;;;;;;4828405;29;20048;-86
2021/07/23 01:25:17;;;;;;;0.13;0.13;;;;;;;;;;4828209;29;20042;-86
2021/07/23 01:27:47;;;;;;;0.10;0.10;;;;;;;;;;4828096;29;20042;-87
2021/07/23 01:30:14;;;;;;;0.10;0.10;;;;;;;;;;4813450;29;20042;-87
2021/07/23 01:32:40;;;;;;;0.10;0.10;;;;;;;;;;4813405;29;20042;-86
2021/07/23 01:35:07;;;;;;;0.10;0.10;;;;;;;;;;4828144;29;20050;-86
2021/07/23 01:37:33;;;;;;;0.10;0.10;;;;;;;;;;4827901;29;20116;-86
2021/07/23 01:39:59;;;;;;;0.10;0.10;;;;;;;;;;4812914;29;20069;-86
2021/07/23 01:42:27;;;;;;;0.10;0.10;;;;;;;;;;4812832;29;20054;-86
2021/07/23 01:44:53;;;;;;;0.10;0.10;;;;;;;;;;4812705;29;20050;-86
2021/07/23 01:47:19;;;;;;;0.10;0.10;;;;;;;;;;4827725;29;20042;-87
2021/07/23 01:49:45;;;;;;;0.10;0.10;;;;;;;;;;4827711;29;20089;-87
2021/07/23 01:52:11;;;;;;;0.10;0.10;;;;;;;;;;4812813;29;20098;-87
2021/07/23 01:54:37;;;;;;;0.10;0.10;;;;;;;;;;4827565;29;20046;-86
2021/07/23 01:57:05;;;;;;;0.20;0.20;;;;;;;;;;4827802;29;20054;-86
2021/07/23 01:59:31;;;;;;;0.10;0.10;;;;;;;;;;4812665;29;20410;-86
2021/07/23 02:01:57;;;;;;;0.10;0.10;;;;;;;;;;4812566;29;20528;-86
2021/07/23 02:04:23;;;;;;;0.10;0.10;;;;;;;;;;4812835;29;20444;-87
2021/07/23 02:06:49;;;;;;;0.10;0.10;;;;;;;;;;4827496;29;20080;-88
2021/07/23 02:09:15;;;;;;;0.10;0.10;;;;;;;;;;4812365;29;20071;-88
2021/07/23 02:11:41;;;;;;;0.10;0.10;;;;;;;;;;4812516;29;20085;-87
2021/07/23 02:14:08;;;;;;;0.10;0.10;;;;;;;;;;4826760;29;20042;-88
2021/07/23 02:16:34;;;;;;;0.10;0.10;;;;;;;;;;4812183;29;20046;-87
2021/07/23 02:19:00;;;;;;;0.10;0.10;;;;;;;;;;4812471;29;20065;-87
2021/07/23 02:21:26;;;;;;;0.10;0.10;;;;;;;;;;4812188;29;20129;-87
2021/07/23 02:23:52;;;;;;;0.10;0.10;;;;;;;;;;4812162;29;20080;-87
2021/07/23 02:26:19;;;;;;;0.10;0.10;;;;;;;;;;4827137;29;20034;-88
2021/07/23 02:28:45;;;;;;;0.17;0.17;;;;;;;;;;4827074;29;20099;-87
2021/07/23 02:31:11;;;;;;;0.10;0.10;;;;;;;;;;4812178;29;20079;-87
2021/07/23 02:33:37;;;;;;;0.80;0.30;;;;;;;;;;4812082;29;20121;-87
2021/07/23 02:36:03;;;;;;;0.20;0.20;;;;;;;;;;4827128;29;20061;-87
2021/07/23 02:38:29;;;;;;;0.10;0.10;;;;;;;;;;4811833;29;20616;-86
2021/07/23 02:40:56;;;;;;;0.10;0.10;;;;;;;;;;4811889;29;20125;-87
2021/07/23 02:43:22;;;;;;;0.20;0.20;;;;;;;;;;4811989;29;20071;-87
2021/07/23 02:45:48;;;;;;;0.10;0.10;;;;;;;;;;4811739;29;20038;-87
2021/07/23 02:48:14;;;;;;;0.10;0.10;;;;;;;;;;4826896;29;20038;-87
2021/07/23 02:50:40;;;;;;;0.10;0.10;;;;;;;;;;4811565;29;20102;-87
2021/07/23 02:53:06;;;;;;;0.20;0.20;;;;;;;;;;4826854;29;20045;-87
2021/07/23 02:55:32;;;;;;;0.10;0.10;;;;;;;;;;4811750;29;20042;-84
2021/07/23 02:58:00;;;;;;;0.20;0.20;;;;;;;;;;4826819;29;20073;-84
2021/07/23 03:00:26;;;;;;;0.20;0.20;;;;;;;;;;4826604;29;20080;-84
2021/07/23 03:02:52;;;;;;;0.10;0.10;;;;;;;;;;4811565;29;20493;-84
2021/07/23 03:05:18;;;;;;;0.10;0.10;;;;;;;;;;4811531;29;20042;-84
2021/07/23 03:07:44;;;;;;;0.10;0.10;;;;;;;;;;4811524;29;20464;-84
2021/07/23 03:10:10;;;;;;;0.10;0.10;;;;;;;;;;4826449;29;20038;-87
2021/07/23 03:12:37;;;;;;;0.10;0.10;;;;;;;;;;4826518;29;20098;-87
2021/07/23 03:15:03;;;;;;;0.10;0.10;;;;;;;;;;4826433;29;20502;-87
2021/07/23 03:17:29;;;;;;;0.10;0.10;;;;;;;;;;4811121;29;20121;-87
2021/07/23 03:19:55;;;;;;;0.10;0.10;;;;;;;;;;4826384;29;20042;-87
2021/07/23 03:22:21;;;;;;;0.20;0.20;;;;;;;;;;4826332;29;20046;-87
2021/07/23 03:24:47;;;;;;;0.10;0.10;;;;;;;;;;4825521;29;20042;-87
2021/07/23 03:27:14;;;;;;;0.10;0.10;;;;;;;;;;4811237;29;20077;-87
2021/07/23 03:29:40;;;;;;;0.10;0.10;;;;;;;;;;4826153;29;20042;-87
2021/07/23 03:32:07;;;;;;;0.60;0.30;;;;;;;;;;4826245;29;20113;-87
2021/07/23 03:34:33;;;;;;;0.10;0.10;;;;;;;;;;4810878;29;20109;-86
2021/07/23 03:36:59;;;;;;;0.10;0.10;;;;;;;;;;4826061;29;20133;-87
2021/07/23 03:39:25;;;;;;;0.10;0.10;;;;;;;;;;4811070;29;20048;-87
2021/07/23 03:41:52;;;;;;;0.20;0.20;;;;;;;;;;4810896;29;20046;-87
2021/07/23 03:44:18;;;;;;;0.10;0.10;;;;;;;;;;4826176;29;20053;-87
2021/07/23 03:46:44;;;;;;;0.10;0.10;;;;;;;;;;4825886;29;20038;-86
2021/07/23 03:49:10;;;;;;;0.10;0.10;;;;;;;;;;4842285;29;20042;-86
2021/07/23 03:51:36;;;;;;;0.20;0.20;;;;;;;;;;4825711;29;20058;-87
2021/07/23 03:54:02;;;;;;;0.20;0.20;;;;;;;;;;4825947;29;20069;-87
2021/07/23 03:56:28;;;;;;;0.10;0.10;;;;;;;;;;4810519;29;20406;-86
2021/07/23 03:58:54;;;;;;;0.25;0.25;;;;;;;;;;4810599;29;20054;-87
2021/07/23 04:01:20;;;;;;;0.10;0.10;;;;;;;;;;4810498;29;20046;-86
2021/07/23 04:03:46;;;;;;;0.10;0.10;;;;;;;;;;4825964;29;20041;-87
2021/07/23 04:06:13;;;;;;;0.20;0.20;;;;;;;;;;4825831;29;20451;-86
2021/07/23 04:08:41;;;;;;;0.10;0.10;;;;;;;;;;4810305;29;20042;-86
2021/07/23 04:11:15;;;;;;;0.10;0.10;;;;;;;;;;4825959;29;20069;-86
2021/07/23 04:13:42;;;;;;;0.10;0.10;;;;;;;;;;4811449;29;20106;-86
2021/07/23 04:16:08;;;;;;;0.10;0.10;;;;;;;;;;4825642;29;20496;-86
2021/07/23 04:18:34;;;;;;;0.10;0.10;;;;;;;;;;4825499;29;20050;-87
2021/07/23 04:21:03;;;;;;;0.10;0.10;;;;;;;;;;4841638;29;20097;-86
2021/07/23 04:23:30;;;;;;;0.10;0.10;;;;;;;;;;4825610;29;20125;-87
2021/07/23 04:25:56;;;;;;;0.10;0.10;;;;;;;;;;4825456;29;20038;-87
2021/07/23 04:28:22;;;;;;;0.10;0.10;;;;;;;;;;4825370;29;20098;-87
2021/07/23 04:30:48;;;;;;;0.10;0.10;;;;;;;;;;4841757;29;20042;-87
2021/07/23 04:33:14;;;;;;;0.20;0.20;;;;;;;;;;4810097;29;20380;-86
2021/07/23 04:35:40;;;;;;;0.10;0.10;;;;;;;;;;4825055;29;20136;-87
2021/07/23 04:38:06;;;;;;;0.10;0.10;;;;;;;;;;4810074;29;20486;-86
2021/07/23 04:40:32;;;;;;;0.10;0.10;;;;;;;;;;4825226;29;20046;-86
2021/07/23 04:42:59;;;;;;;0.20;0.20;;;;;;;;;;4825407;29;20151;-87
2021/07/23 04:45:25;;;;;;;0.10;0.10;;;;;;;;;;4841500;29;20048;-87
2021/07/23 04:47:51;;;;;;;0.20;0.20;;;;;;;;;;4810102;29;20371;-87
2021/07/23 04:50:17;;;;;;;0.10;0.10;;;;;;;;;;4824965;29;20038;-87
2021/07/23 04:52:43;;;;;;;0.20;0.20;;;;;;;;;;4825224;29;20061;-87
2021/07/23 04:55:11;;;;;;;0.10;0.10;;;;;;;;;;4825373;29;20041;-87
2021/07/23 04:57:45;;;;;;;0.10;0.10;;;;;;;;;;4810550;29;20042;-87
2021/07/23 05:00:12;;;;;;;0.10;0.10;;;;;;;;;;4810368;29;20054;-86
2021/07/23 05:02:41;;;;;;;0.10;0.10;;;;;;;;;;4809992;29;20062;-87
2021/07/23 05:05:08;;;;;;;0.85;0.20;;;;;;;;;;4824925;29;20042;-87
2021/07/23 05:07:34;;;;;;;0.10;0.10;;;;;;;;;;4809642;29;20418;-87
2021/07/23 05:10:01;;;;;;;0.10;0.10;;;;;;;;;;4809833;29;20046;-87
2021/07/23 05:12:27;;;;;;;0.10;0.10;;;;;;;;;;4824948;29;20551;-86
2021/07/23 05:14:53;;;;;;;0.20;0.20;;;;;;;;;;4825153;29;20037;-86
2021/07/23 05:17:19;;;;;;;0.10;0.10;;;;;;;;;;4824933;29;20048;-87
2021/07/23 05:19:45;;;;;;;0.10;0.10;;;;;;;;;;4824929;29;20045;-87
2021/07/23 05:22:12;;;;;;;0.10;0.10;;;;;;;;;;4809612;29;20053;-87
2021/07/23 05:24:38;;;;;;;0.20;0.20;;;;;;;;;;4841169;29;20049;-87
2021/07/23 05:27:04;;;;;;;0.10;0.10;;;;;;;;;;4841047;29;20038;-86
2021/07/23 05:29:30;;;;;;;0.20;0.20;;;;;;;;;;4824830;29;20041;-86
2021/07/23 05:31:56;;;;;;;0.10;0.10;;;;;;;;;;4824826;29;20058;-86
2021/07/23 05:34:22;;;;;;;0.10;0.10;;;;;;;;;;4824934;29;20150;-86
2021/07/23 05:36:48;;;;;;;0.40;0.40;;;;;;;;;;4809474;29;20042;-87
2021/07/23 05:39:14;;;;;;;0.10;0.10;;;;;;;;;;4824893;29;20045;-87
2021/07/23 05:41:40;;;;;;;0.10;0.10;;;;;;;;;;4824666;29;20407;-87
2021/07/23 05:44:06;;;;;;;0.10;0.10;;;;;;;;;;4824809;29;20045;-86
2021/07/23 05:46:33;;;;;;;0.10;0.10;;;;;;;;;;4840809;29;20045;-87
2021/07/23 05:48:59;;;;;;;0.10;0.10;;;;;;;;;;4811463;29;20046;-87
2021/07/23 05:51:25;;;;;;;0.10;0.10;;;;;;;;;;4812647;29;20341;-87
2021/07/23 05:53:51;;;;;;;0.10;0.10;;;;;;;;;;4812760;29;20423;-86
2021/07/23 05:56:17;;;;;;;0.10;0.10;;;;;;;;;;4827705;29;20478;-87
2021/07/23 05:58:43;;;;;;;0.10;0.10;;;;;;;;;;4812488;29;20075;-86
2021/07/23 06:01:11;;;;;;;0.15;0.15;;;;;;;;;;4812839;29;20057;-87
2021/07/23 06:03:37;;;;;;;0.20;0.20;;;;;;;;;;4827535;29;20045;-86
2021/07/23 06:06:04;;;;;;;0.10;0.10;;;;;;;;;;4827617;29;20038;-85
2021/07/23 06:08:30;;;;;;;0.10;0.10;;;;;;;;;;4812476;29;20050;-85
2021/07/23 06:10:56;;;;;;;0.10;0.10;;;;;;;;;;4827586;29;20046;-85
2021/07/23 06:13:23;;;;;;;0.10;0.10;;;;;;;;;;4827927;29;20160;-86
2021/07/23 06:15:49;;;;;;;0.10;0.10;;;;;;;;;;4812366;29;20034;-86
2021/07/23 06:18:15;;;;;;;0.20;0.20;;;;;;;;;;4843510;29;20129;-85
2021/07/23 06:20:41;;;;;;;0.10;0.10;;;;;;;;;;4827510;29;20042;-92
2021/07/23 06:23:07;;;;;;;0.10;0.10;;;;;;;;;;4812407;29;20038;-87
2021/07/23 06:25:33;;;;;;;0.63;0.30;;;;;;;;;;4812417;29;20049;-86
2021/07/23 06:27:59;;;;;;;0.30;0.30;;;;;;;;;;4827096;29;20042;-86
2021/07/23 06:30:25;;;;;;;0.10;0.10;;;;;;;;;;4812247;29;20038;-85
2021/07/23 06:32:51;;;;;;;0.10;0.10;;;;;;;;;;4811937;29;20101;-86
2021/07/23 06:35:17;;;;;;;0.10;0.10;;;;;;;;;;4827160;29;20041;-85
2021/07/23 06:37:43;;;;;;;0.10;0.10;;;;;;;;;;4827133;29;20041;-86
2021/07/23 06:40:09;;;;;;;0.10;0.10;;;;;;;;;;4812070;29;20073;-85
2021/07/23 06:42:36;;;;;;;0.10;0.10;;;;;;;;;;4826936;29;20075;-86
2021/07/23 06:45:03;;;;;;;0.20;0.20;;;;;;;;;;4827232;29;20037;-86
2021/07/23 06:47:29;;;;;;;0.43;0.32;;;;;;;;;;4811863;29;20045;-85
2021/07/23 06:49:55;;;;;;;0.20;0.20;;;;;;;;;;4826888;29;20042;-85
2021/07/23 06:52:21;;;;;;;0.13;0.13;;;;;;;;;;4826699;29;20424;-85
2021/07/23 06:54:50;;;;;;;0.10;0.10;;;;;;;;;;4826768;29;20417;-87
2021/07/23 06:57:16;;;;;;;0.10;0.10;;;;;;;;;;4811822;29;20041;-88
2021/07/23 06:59:42;;;;;;;0.20;0.20;;;;;;;;;;4811348;29;20042;-87
2021/07/23 07:02:08;;;;;;;0.10;0.10;;;;;;;;;;4811423;29;20042;-86
2021/07/23 07:04:34;;;;;;;0.10;0.10;;;;;;;;;;4811604;29;20102;-86
2021/07/23 07:07:01;;;;;;;0.20;0.20;;;;;;;;;;4826659;29;20053;-87
2021/07/23 07:09:27;;;;;;;0.20;0.20;;;;;;;;;;4811536;29;20486;-86
2021/07/23 07:11:53;;;;;;;0.10;0.10;;;;;;;;;;4811339;29;20050;-86
2021/07/23 07:14:21;;;;;;;0.10;0.10;;;;;;;;;;4842644;29;20042;-86
2021/07/23 07:16:47;;;;;;;0.10;0.10;;;;;;;;;;4826498;29;20121;-87
2021/07/23 07:19:13;;;;;;;0.20;0.20;;;;;;;;;;4811267;29;20121;-88
2021/07/23 07:21:45;;;;;;;0.10;0.10;;;;;;;;;;4811132;29;20042;-86
2021/07/23 07:24:11;;;;;;;0.10;0.10;;;;;;;;;;4812023;29;20124;-88
2021/07/23 07:26:37;;;;;;;0.20;0.20;;;;;;;;;;4826067;29;20120;-91
2021/07/23 07:29:03;;;;;;;0.43;0.30;;;;;;;;;;4811564;29;20046;-93
2021/07/23 07:31:35;;;;;;;0.10;0.10;;;;;;;;;;4797365;29;20050;-96
2021/07/23 07:34:01;;;;;;;0.10;0.10;;;;;;;;;;4826464;29;20034;-90
2021/07/23 07:36:27;;;;;;;0.10;0.10;;;;;;;;;;4811090;29;20098;-90
2021/07/23 07:38:53;;;;;;;0.20;0.20;;;;;;;;;;4826534;29;20056;-87
2021/07/23 07:41:19;;;;;;;0.32;0.32;;;;;;;;;;4810514;29;20041;-87
2021/07/23 07:43:46;;;;;;;0.10;0.10;;;;;;;;;;4810081;29;20042;-88
2021/07/23 07:46:12;;;;;;;0.10;0.10;;;;;;;;;;4810751;29;20042;-87
2021/07/23 07:48:38;;;;;;;0.10;0.10;;;;;;;;;;4825726;29;20048;-87
2021/07/23 07:51:04;;;;;;;0.17;0.17;;;;;;;;;;4810617;29;20054;-86
2021/07/23 07:53:30;;;;;;;0.10;0.10;;;;;;;;;;4810904;29;20075;-86
2021/07/23 07:55:56;;;;;;;0.20;0.20;;;;;;;;;;4842099;29;20073;-87
2021/07/23 07:58:22;;;;;;;0.10;0.10;;;;;;;;;;4825744;29;20106;-87
2021/07/23 08:00:48;;;;;;;0.10;0.10;;;;;;;;;;4810534;29;20532;-87
2021/07/23 08:03:15;;;;;;;0.20;0.20;;;;;;;;;;4810605;29;20119;-87
2021/07/23 08:05:41;;;;;;;0.10;0.10;;;;;;;;;;4825800;29;20454;-87
2021/07/23 08:08:09;;;;;;;0.20;0.20;;;;;;;;;;4841780;29;20041;-87
2021/07/23 08:10:45;;;;;;;0.17;0.17;;;;;;;;;;4810170;29;20045;-87
2021/07/23 08:13:11;;;;;;;0.60;0.60;;;;;;;;;;4811608;29;20053;-87
2021/07/23 08:15:37;;;;;;;0.20;0.20;;;;;;;;;;4825717;29;20229;-87
2021/07/23 08:18:03;;;;;;;0.13;0.13;;;;;;;;;;4825570;29;20248;-87
2021/07/23 08:20:30;;;;;;;0.10;0.10;;;;;;;;;;4825633;29;20054;-87
2021/07/23 08:22:56;;;;;;;0.20;0.20;;;;;;;;;;4825521;29;20049;-87
2021/07/23 08:25:22;;;;;;;0.20;0.20;;;;;;;;;;4825513;29;20045;-87
2021/07/23 08:27:48;;;;;;;0.20;0.20;;;;;;;;;;4825351;29;20042;-87
2021/07/23 08:30:14;;;;;;;0.20;0.20;;;;;;;;;;4810179;29;20487;-87
2021/07/23 08:32:44;;;;;;;0.20;0.20;;;;;;;;;;4825392;29;20050;-87
2021/07/23 08:35:10;;;;;;;0.35;0.22;;;;;;;;;;4841538;29;20505;-87
2021/07/23 08:37:36;;;;;;;0.20;0.20;;;;;;;;;;4825337;29;20046;-87
2021/07/23 08:40:05;;;;;;;0.10;0.10;;;;;;;;;;4810147;29;20195;-88
2021/07/23 08:42:32;;;;;;;0.10;0.10;;;;;;;;;;4825877;29;20065;-87
2021/07/23 08:44:58;;;;;;;0.10;0.10;;;;;;;;;;4825284;29;20048;-87
2021/07/23 08:47:24;;;;;;;0.20;0.20;;;;;;;;;;4825165;29;20042;-87
2021/07/23 08:49:51;;;;;;;0.10;0.10;;;;;;;;;;4825169;29;20063;-87
2021/07/23 08:52:17;;;;;;;0.10;0.10;;;;;;;;;;4824777;29;20050;-87
2021/07/23 08:54:44;;;;;;;0.10;0.10;;;;;;;;;;4825175;29;20127;-87
2021/07/23 08:57:10;;;;;;;0.17;0.17;;;;;;;;;;4825165;29;20042;-87
2021/07/23 08:59:36;;;;;;;0.15;0.15;;;;;;;;;;4810129;29;20061;-87
2021/07/23 09:02:04;;;;;;;0.10;0.10;;;;;;;;;;4825296;29;20128;-87
2021/07/23 09:04:36;;;;;;;0.20;0.20;;;;;;;;;;4825407;29;20054;-87
2021/07/23 09:07:17;;;;;;;0.25;0.25;;;;;;;;;;4824982;29;20073;-87
2021/07/23 09:09:43;;;;;;;0.10;0.10;;;;;;;;;;4841142;29;20404;-87
2021/07/23 09:12:10;;;;;;;0.20;0.20;;;;;;;;;;4809797;29;20050;-87
2021/07/23 09:14:36;;;;;;;0.20;0.20;;;;;;;;;;4824983;29;20046;-87
2021/07/23 09:17:02;;;;;;;0.10;0.10;;;;;;;;;;4824900;29;20049;-87
2021/07/23 09:19:28;;;;;;;0.20;0.20;;;;;;;;;;4824534;29;20042;-87
2021/07/23 09:21:57;;;;;;;0.20;0.20;;;;;;;;;;4823597;29;20065;-87
2021/07/23 09:24:23;;;;;;;0.20;0.20;;;;;;;;;;4810397;29;20049;-86
2021/07/23 09:26:49;;;;;;;0.20;0.20;;;;;;;;;;4827645;29;20063;-88
2021/07/23 09:29:15;;;;;;;0.10;0.10;;;;;;;;;;4797924;29;20053;-88
2021/07/23 09:32:02;;;;;;;0.10;0.10;;;;;;;;;;4813073;29;20052;-87
2021/07/23 09:34:31;;;;;;;0.20;0.20;;;;;;;;;;4827864;29;20053;-87
2021/07/23 09:37:07;;;;;;;0.20;0.20;;;;;;;;;;4827981;29;20406;-87
2021/07/23 09:39:33;;;;;;;0.13;0.13;;;;;;;;;;4813070;29;20038;-87
2021/07/23 09:42:02;;;;;;;0.20;0.20;;;;;;;;;;4812935;29;20050;-87
2021/07/23 09:44:28;;;;;;;0.10;0.10;;;;;;;;;;4827797;29;20045;-87
2021/07/23 09:46:54;;;;;;;0.10;0.10;;;;;;;;;;4812780;29;20052;-86
2021/07/23 09:49:20;;;;;;;0.28;0.28;;;;;;;;;;4827804;29;20179;-88
2021/07/23 09:51:47;;;;;;;0.30;0.30;;;;;;;;;;4844094;29;20122;-87
2021/07/23 09:54:13;;;;;;;0.20;0.20;;;;;;;;;;4827846;29;20113;-87
2021/07/23 09:56:39;;;;;;;0.10;0.10;;;;;;;;;;4827868;29;20121;-88
2021/07/23 09:59:22;;;;;;;0.10;0.10;;;;;;;;;;4827988;29;20487;-88
2021/07/23 10:01:49;;;;;;;0.13;0.13;;;;;;;;;;4797820;29;20076;-88
2021/07/23 10:04:20;;;;;;;0.10;0.10;;;;;;;;;;4827631;29;20487;-88
2021/07/23 10:06:49;;;;;;;0.10;0.10;;;;;;;;;;4827511;29;20102;-88
2021/07/23 10:09:15;;;;;;;0.57;0.57;;;;;;;;;;4827448;29;20042;-90
2021/07/23 10:11:41;;;;;;;0.20;0.20;;;;;;;;;;4812107;29;20053;-89
2021/07/23 10:14:11;;;;;;;0.20;0.20;;;;;;;;;;4813193;29;20046;-89
2021/07/23 10:16:42;;;;;;;0.30;0.30;;;;;;;;;;4797268;29;20046;-89
2021/07/23 10:19:08;;;;;;;0.20;0.20;;;;;;;;;;4828030;29;20094;-88
2021/07/23 10:21:35;;;;;;;0.10;0.10;;;;;;;;;;4812165;29;20054;-88
2021/07/23 10:24:01;;;;;;;0.10;0.10;;;;;;;;;;4812031;29;20460;-88
2021/07/23 10:26:28;;;;;;;0.20;0.20;;;;;;;;;;4812096;29;20435;-88
2021/07/23 10:28:55;;;;;;;0.20;0.20;;;;;;;;;;4797201;29;20499;-89
2021/07/23 10:31:27;;;;;;;0.10;0.10;;;;;;;;;;4827218;29;20046;-88
2021/07/23 10:33:53;;;;;;;0.10;0.10;;;;;;;;;;4826473;29;20050;-88
2021/07/23 10:36:31;;;;;;;0.10;0.10;;;;;;;;;;4827119;29;20230;-90
2021/07/23 10:39:06;;;;;;;0.10;0.10;;;;;;;;;;4843346;29;20065;-89
2021/07/23 10:41:33;;;;;;;0.10;0.10;;;;;;;;;;4843213;29;20273;-89
2021/07/23 10:43:59;;;;;;;0.10;0.10;;;;;;;;;;4812068;29;20122;-88
2021/07/23 10:46:43;;;;;;;0.10;0.10;;;;;;;;;;4826901;29;20499;-88
2021/07/23 10:49:28;;;;;;;0.20;0.20;;;;;;;;;;4826738;29;20042;-88
2021/07/23 10:51:54;;;;;;;0.10;0.10;;;;;;;;;;4826441;29;20137;-88
2021/07/23 10:54:20;;;;;;;0.20;0.20;;;;;;;;;;4826662;29;20045;-88
2021/07/23 10:57:00;;;;;;;0.10;0.10;;;;;;;;;;4826560;29;20034;-88
2021/07/23 10:59:41;;;;;;;0.10;0.10;;;;;;;;;;4811782;29;20560;-88
2021/07/23 11:02:10;;;;;;;0.10;0.10;;;;;;;;;;4842867;29;20038;-88
2021/07/23 11:04:36;;;;;;;0.10;0.10;;;;;;;;;;4842842;29;20052;-88
2021/07/23 11:07:04;;;;;;;0.15;0.15;;;;;;;;;;4826681;29;20376;-88
2021/07/23 11:09:34;;;;;;;0.10;0.10;;;;;;;;;;4825628;29;20466;-88
2021/07/23 11:12:15;;;;;;;0.10;0.10;;;;;;;;;;4812099;29;20121;-88
2021/07/23 11:14:41;;;;;;;0.10;0.10;;;;;;;;;;4842768;29;20042;-88
2021/07/23 11:17:08;;;;;;;0.10;0.10;;;;;;;;;;4811259;29;20038;-88
2021/07/23 11:19:35;;;;;;;0.20;0.20;;;;;;;;;;4826075;29;20075;-90
2021/07/23 11:22:01;;;;;;;0.20;0.20;;;;;;;;;;4811145;29;20073;-87
2021/07/23 11:24:34;;;;;;;0.17;0.17;;;;;;;;;;4826249;29;20463;-86
2021/07/23 11:27:00;;;;;;;0.10;0.10;;;;;;;;;;4826285;29;20102;-87
2021/07/23 11:29:30;;;;;;;0.10;0.10;;;;;;;;;;4810933;29;20046;-84
2021/07/23 11:32:04;;;;;;;0.10;0.10;;;;;;;;;;4827169;29;20050;-86
2021/07/23 11:34:36;;;;;;;0.30;0.30;;;;;;;;;;4826138;29;20050;-87
2021/07/23 11:37:11;;;;;;;0.13;0.13;;;;;;;;;;4811654;29;20462;-86
2021/07/23 11:39:48;;;;;;;0.10;0.10;;;;;;;;;;4826226;29;20045;-86
2021/07/23 11:42:14;;;;;;;0.20;0.20;;;;;;;;;;4811120;29;20510;-88
2021/07/23 11:44:49;;;;;;;0.20;0.20;;;;;;;;;;4812177;29;20041;-89
2021/07/23 11:47:15;;;;;;;0.20;0.20;;;;;;;;;;4826244;29;20053;-90
2021/07/23 11:49:41;;;;;;;0.10;0.10;;;;;;;;;;4811406;29;20034;-89
2021/07/23 11:52:07;;;;;;;0.10;0.10;;;;;;;;;;4826495;29;20133;-90
2021/07/23 11:54:34;;;;;;;0.20;0.20;;;;;;;;;;4811009;29;20034;-89
2021/07/23 11:57:01;;;;;;;0.10;0.10;;;;;;;;;;4826445;29;20046;-89
2021/07/23 11:59:27;;;;;;;0.30;0.30;;;;;;;;;;4811170;29;20046;-89
2021/07/23 12:01:53;;;;;;;0.20;0.20;;;;;;;;;;4810989;29;20089;-89
2021/07/23 12:04:29;;;;;;;0.20;0.20;;;;;;;;;;4810977;29;20141;-88
2021/07/23 12:06:55;;;;;;;0.20;0.20;;;;;;;;;;4810956;29;20042;-89
2021/07/23 12:09:22;;;;;;;0.10;0.10;;;;;;;;;;4811278;29;20487;-88
2021/07/23 12:11:48;;;;;;;0.10;0.10;;;;;;;;;;4810243;29;20045;-90
2021/07/23 12:14:15;;;;;;;0.13;0.13;;;;;;;;;;4796070;29;20049;-88
2021/07/23 12:16:41;;;;;;;0.10;0.10;;;;;;;;;;4810474;29;20463;-89
2021/07/23 12:19:11;;;;;;;0.10;0.10;;;;;;;;;;4825868;29;20049;-89
2021/07/23 12:21:37;;;;;;;0.20;0.20;;;;;;;;;;4810757;29;20048;-88
2021/07/23 12:24:04;;;;;;;0.10;0.10;;;;;;;;;;4810372;29;20042;-88
2021/07/23 12:26:37;;;;;;;0.20;0.20;;;;;;;;;;4810489;29;20050;-89
2021/07/23 12:29:04;;;;;;;0.20;0.20;;;;;;;;;;4825677;29;20078;-89
2021/07/23 12:31:30;;;;;;;0.20;0.20;;;;;;;;;;4810764;29;20038;-89
2021/07/23 12:34:03;;;;;;;0.20;0.20;;;;;;;;;;4810623;29;20087;-90
2021/07/23 12:36:29;;;;;;;0.22;0.22;;;;;;;;;;4810577;29;20042;-90
2021/07/23 12:39:04;;;;;;;0.17;0.17;;;;;;;;;;4810645;29;20049;-90
2021/07/23 12:41:30;;;;;;;0.20;0.20;;;;;;;;;;4810438;29;20093;-90
2021/07/23 12:44:13;;;;;;;0.10;0.10;;;;;;;;;;4810408;29;20045;-90
2021/07/23 12:46:40;;;;;;;0.10;0.10;;;;;;;;;;4810796;29;20046;-88
2021/07/23 12:49:15;;;;;;;0.30;0.30;;;;;;;;;;4825723;29;20152;-90
2021/07/23 12:51:42;;;;;;;0.20;0.20;;;;;;;;;;4825664;29;20058;-90
2021/07/23 12:54:08;;;;;;;0.10;0.10;;;;;;;;;;4795841;29;20079;-90
2021/07/23 12:56:35;;;;;;;0.20;0.20;;;;;;;;;;4796065;29;20050;-91
2021/07/23 12:59:24;;;;;;;0.10;0.10;;;;;;;;;;4814958;29;20034;-93
2021/07/23 13:01:55;;;;;;;0.10;0.10;;;;;;;;;;4840345;29;20198;-95
2021/07/23 13:04:27;;;;;;;0.10;0.10;;;;;;;;;;4814917;29;20061;-96
2021/07/23 13:06:53;;;;;;;0.20;0.20;;;;;;;;;;4800692;29;20050;-95
2021/07/23 13:09:21;;;;;;;0.10;0.10;;;;;;;;;;4799776;29;20419;-93
2021/07/23 13:11:51;;;;;;;0.20;0.20;;;;;;;;;;4800139;29;20053;-95
2021/07/23 13:14:18;;;;;;;0.20;0.20;;;;;;;;;;4800166;29;20475;-93
2021/07/23 13:16:45;;;;;;;0.15;0.15;;;;;;;;;;4829341;29;20037;-93
2021/07/23 13:19:13;;;;;;;0.10;0.10;;;;;;;;;;4799824;29;20060;-94
2021/07/23 13:21:39;;;;;;;0.17;0.17;;;;;;;;;;4814230;29;20049;-95
2021/07/23 13:24:09;;;;;;;0.20;0.20;;;;;;;;;;4829732;29;20099;-94
2021/07/23 13:26:36;;;;;;;0.30;0.30;;;;;;;;;;4799260;29;20114;-92
2021/07/23 13:29:07;;;;;;;0.10;0.10;;;;;;;;;;4814162;29;20049;-93
2021/07/23 13:31:33;;;;;;;0.10;0.10;;;;;;;;;;4828376;29;20065;-91
2021/07/23 13:34:01;;;;;;;0.10;0.10;;;;;;;;;;4814333;29;20038;-91
2021/07/23 13:36:28;;;;;;;0.20;0.20;;;;;;;;;;4799425;29;20042;-91
2021/07/23 13:39:08;;;;;;;0.10;0.10;;;;;;;;;;4813448;29;20049;-92
2021/07/23 13:41:36;;;;;;;0.20;0.20;;;;;;;;;;4813949;29;20045;-92
2021/07/23 13:44:06;;;;;;;0.10;0.10;;;;;;;;;;4813856;29;20061;-92
2021/07/23 13:46:33;;;;;;;0.20;0.20;;;;;;;;;;4798916;29;20220;-92
2021/07/23 13:48:59;;;;;;;0.10;0.10;;;;;;;;;;4813789;29;20042;-90
2021/07/23 13:51:25;;;;;;;0.10;0.10;;;;;;;;;;4813522;29;20439;-90
2021/07/23 13:53:52;;;;;;;0.20;0.20;;;;;;;;;;4798327;29;20495;-91
2021/07/23 13:56:18;;;;;;;0.20;0.20;;;;;;;;;;4798785;29;20042;-91
2021/07/23 13:58:44;;;;;;;0.10;0.10;;;;;;;;;;4813517;29;20038;-92
2021/07/23 14:01:10;;;;;;;0.20;0.20;;;;;;;;;;4796885;29;20053;-91
2021/07/23 14:03:37;;;;;;;0.10;0.10;;;;;;;;;;4798642;29;20054;-92
2021/07/23 14:06:03;;;;;;;0.10;0.10;;;;;;;;;;4830265;29;20113;-91
2021/07/23 14:08:29;;;;;;;0.20;0.20;;;;;;;;;;4815545;29;20486;-92
2021/07/23 14:10:55;;;;;;;0.13;0.13;;;;;;;;;;4846531;29;20052;-90
2021/07/23 14:13:22;;;;;;;0.20;0.20;;;;;;;;;;4831464;29;20053;-91
2021/07/23 14:15:48;;;;;;;0.20;0.20;;;;;;;;;;4812588;29;20117;-91
2021/07/23 14:18:14;;;;;;;0.10;0.10;;;;;;;;;;4780096;29;20500;-90
2021/07/23 14:20:40;;;;;;;0.30;0.30;;;;;;;;;;4800831;29;20555;-91
2021/07/23 14:23:09;;;;;;;0.20;0.20;;;;;;;;;;4800458;29;20061;-95
2021/07/23 14:25:35;;;;;;;0.20;0.20;;;;;;;;;;4813090;29;20052;-92
2021/07/23 14:28:04;;;;;;;0.10;0.10;;;;;;;;;;4815641;29;20022;-91
2021/07/23 14:30:39;;;;;;;0.10;0.10;;;;;;;;;;4828450;29;20038;-93
2021/07/23 14:33:10;;;;;;;0.20;0.20;;;;;;;;;;4812918;29;20511;-95
2021/07/23 14:35:39;;;;;;;0.10;0.10;;;;;;;;;;4813468;29;20132;-93
2021/07/23 14:38:05;;;;;;;0.10;0.10;;;;;;;;;;4813163;29;20121;-91
2021/07/23 14:40:31;;;;;;;0.15;0.15;;;;;;;;;;4813039;29;20065;-91
2021/07/23 14:42:57;;;;;;;0.10;0.10;;;;;;;;;;4813641;29;20105;-93
2021/07/23 14:45:36;;;;;;;0.13;0.13;;;;;;;;;;4813391;29;20482;-94